sensor_id;sensor_type;location;lat;lon;timestamp;pressure;altitude;pressure_sealevel;temperature
29701;BMP280;57917;51.380;-0.176;2023-06-26T00:01:32;101276.06;;;18.81
29701;BMP280;57917;51.380;-0.176;2023-06-26T00:07:24;101288.22;;;18.53
29701;BMP280;57917;51.380;-0.176;2023-06-26T00:13:11;101290.94;;;18.70
29701;BMP280;57917;51.380;-0.176;2023-06-26T00:18:59;101299.75;;;18.79
29701;BMP280;57917;51.380;-0.176;2023-06-26T00:24:46;101306.66;;;18.71
29701;BMP280;57917;51.380;-0.176;2023-06-26T00:30:33;101304.34;;;18.70
29701;BMP280;57917;51.380;-0.176;2023-06-26T00:36:22;101303.06;;;18.42
29701;BMP280;57917;51.380;-0.176;2023-06-26T00:42:16;101312.22;;;18.58
29701;BMP280;57917;51.380;-0.176;2023-06-26T00:48:04;101313.63;;;18.38
29701;BMP280;57917;51.380;-0.176;2023-06-26T00:53:51;101320.09;;;18.37
29701;BMP280;57917;51.380;-0.176;2023-06-26T00:59:39;101317.72;;;18.19
29701;BMP280;57917;51.380;-0.176;2023-06-26T01:05:27;101325.59;;;18.32
29701;BMP280;57917;51.380;-0.176;2023-06-26T01:11:15;101327.47;;;18.15
29701;BMP280;57917;51.380;-0.176;2023-06-26T01:17:02;101350.50;;;18.24
29701;BMP280;57917;51.380;-0.176;2023-06-26T01:28:43;101354.41;;;18.10
29701;BMP280;57917;51.380;-0.176;2023-06-26T01:34:31;101365.53;;;17.95
29701;BMP280;57917;51.380;-0.176;2023-06-26T01:40:18;101364.97;;;18.06
29701;BMP280;57917;51.380;-0.176;2023-06-26T01:46:11;101372.13;;;17.89
29701;BMP280;57917;51.380;-0.176;2023-06-26T01:52:20;101377.19;;;17.60
29701;BMP280;57917;51.380;-0.176;2023-06-26T01:58:08;101382.75;;;17.72
29701;BMP280;57917;51.380;-0.176;2023-06-26T02:03:55;101371.44;;;17.75
29701;BMP280;57917;51.380;-0.176;2023-06-26T02:09:43;101379.38;;;17.88
29701;BMP280;57917;51.380;-0.176;2023-06-26T02:15:30;101379.59;;;17.70
29701;BMP280;57917;51.380;-0.176;2023-06-26T02:21:17;101384.34;;;17.64
29701;BMP280;57917;51.380;-0.176;2023-06-26T02:27:06;101401.91;;;17.57
29701;BMP280;57917;51.380;-0.176;2023-06-26T02:32:55;101398.25;;;17.53
29701;BMP280;57917;51.380;-0.176;2023-06-26T02:38:42;101407.28;;;17.57
29701;BMP280;57917;51.380;-0.176;2023-06-26T02:44:32;101406.25;;;17.44
29701;BMP280;57917;51.380;-0.176;2023-06-26T02:50:19;101415.56;;;17.25
29701;BMP280;57917;51.380;-0.176;2023-06-26T02:56:23;101422.63;;;17.07
29701;BMP280;57917;51.380;-0.176;2023-06-26T03:02:10;101423.59;;;17.11
29701;BMP280;57917;51.380;-0.176;2023-06-26T03:08:03;101426.44;;;17.06
29701;BMP280;57917;51.380;-0.176;2023-06-26T03:13:51;101432.88;;;16.92
29701;BMP280;57917;51.380;-0.176;2023-06-26T03:19:41;101425.94;;;16.91
29701;BMP280;57917;51.380;-0.176;2023-06-26T03:25:42;101441.41;;;16.94
29701;BMP280;57917;51.380;-0.176;2023-06-26T03:31:49;101442.41;;;16.84
29701;BMP280;57917;51.380;-0.176;2023-06-26T03:37:40;101439.44;;;16.86
29701;BMP280;57917;51.380;-0.176;2023-06-26T03:43:30;101449.22;;;16.77
29701;BMP280;57917;51.380;-0.176;2023-06-26T03:49:34;101456.44;;;16.76
29701;BMP280;57917;51.380;-0.176;2023-06-26T03:55:21;101465.19;;;16.82
29701;BMP280;57917;51.380;-0.176;2023-06-26T04:01:09;101464.88;;;16.70
29701;BMP280;57917;51.380;-0.176;2023-06-26T04:06:56;101473.72;;;16.84
29701;BMP280;57917;51.380;-0.176;2023-06-26T04:12:47;101462.03;;;16.80
29701;BMP280;57917;51.380;-0.176;2023-06-26T04:18:34;101466.09;;;16.77
29701;BMP280;57917;51.380;-0.176;2023-06-26T04:24:22;101485.78;;;16.68
29701;BMP280;57917;51.380;-0.176;2023-06-26T04:30:09;101496.00;;;16.66
29701;BMP280;57917;51.380;-0.176;2023-06-26T04:35:56;101488.97;;;16.83
29701;BMP280;57917;51.380;-0.176;2023-06-26T04:41:44;101484.78;;;18.14
29701;BMP280;57917;51.380;-0.176;2023-06-26T04:47:32;101480.78;;;19.16
29701;BMP280;57917;51.380;-0.176;2023-06-26T04:53:20;101482.03;;;19.98
29701;BMP280;57917;51.380;-0.176;2023-06-26T04:59:08;101494.13;;;20.79
29701;BMP280;57917;51.380;-0.176;2023-06-26T05:04:59;101502.28;;;21.32
29701;BMP280;57917;51.380;-0.176;2023-06-26T05:10:50;101493.97;;;22.18
29701;BMP280;57917;51.380;-0.176;2023-06-26T05:16:37;101478.97;;;22.69
29701;BMP280;57917;51.380;-0.176;2023-06-26T05:22:25;101488.53;;;22.66
29701;BMP280;57917;51.380;-0.176;2023-06-26T05:28:15;101494.72;;;23.22
29701;BMP280;57917;51.380;-0.176;2023-06-26T05:34:05;101511.19;;;23.91
29701;BMP280;57917;51.380;-0.176;2023-06-26T05:39:54;101524.09;;;23.97
29701;BMP280;57917;51.380;-0.176;2023-06-26T05:45:41;101514.00;;;24.29
29701;BMP280;57917;51.380;-0.176;2023-06-26T05:51:30;101511.19;;;24.41
29701;BMP280;57917;51.380;-0.176;2023-06-26T05:57:20;101507.88;;;23.82
29701;BMP280;57917;51.380;-0.176;2023-06-26T06:03:10;101514.28;;;23.31
29701;BMP280;57917;51.380;-0.176;2023-06-26T06:08:57;101505.97;;;22.57
29701;BMP280;57917;51.380;-0.176;2023-06-26T06:14:45;101512.06;;;22.30
29701;BMP280;57917;51.380;-0.176;2023-06-26T06:20:34;101523.09;;;21.68
29701;BMP280;57917;51.380;-0.176;2023-06-26T06:26:21;101536.56;;;21.56
29701;BMP280;57917;51.380;-0.176;2023-06-26T06:32:09;101543.31;;;20.68
29701;BMP280;57917;51.380;-0.176;2023-06-26T06:37:56;101548.09;;;20.54
29701;BMP280;57917;51.380;-0.176;2023-06-26T06:43:43;101556.56;;;20.35
29701;BMP280;57917;51.380;-0.176;2023-06-26T06:49:33;101559.34;;;20.18
29701;BMP280;57917;51.380;-0.176;2023-06-26T06:55:22;101567.63;;;20.42
29701;BMP280;57917;51.380;-0.176;2023-06-26T07:01:13;101575.28;;;20.61
29701;BMP280;57917;51.380;-0.176;2023-06-26T07:07:07;101573.03;;;20.71
29701;BMP280;57917;51.380;-0.176;2023-06-26T07:12:55;101585.47;;;20.55
29701;BMP280;57917;51.380;-0.176;2023-06-26T07:18:44;101579.84;;;20.60
29701;BMP280;57917;51.380;-0.176;2023-06-26T07:24:31;101595.47;;;21.04
29701;BMP280;57917;51.380;-0.176;2023-06-26T07:30:19;101598.81;;;21.01
29701;BMP280;57917;51.380;-0.176;2023-06-26T07:36:07;101589.44;;;21.07
29701;BMP280;57917;51.380;-0.176;2023-06-26T07:41:54;101601.44;;;20.81
29701;BMP280;57917;51.380;-0.176;2023-06-26T07:47:41;101608.69;;;21.18
29701;BMP280;57917;51.380;-0.176;2023-06-26T07:53:29;101594.13;;;22.17
29701;BMP280;57917;51.380;-0.176;2023-06-26T07:59:18;101607.19;;;22.63
29701;BMP280;57917;51.380;-0.176;2023-06-26T08:05:09;101602.91;;;22.38
29701;BMP280;57917;51.380;-0.176;2023-06-26T08:10:58;101615.88;;;21.99
29701;BMP280;57917;51.380;-0.176;2023-06-26T08:16:48;101604.94;;;22.53
29701;BMP280;57917;51.380;-0.176;2023-06-26T08:22:35;101607.75;;;23.20
29701;BMP280;57917;51.380;-0.176;2023-06-26T08:28:22;101612.94;;;23.52
29701;BMP280;57917;51.380;-0.176;2023-06-26T08:34:10;101599.13;;;24.16
29701;BMP280;57917;51.380;-0.176;2023-06-26T08:39:57;101591.91;;;23.89
29701;BMP280;57917;51.380;-0.176;2023-06-26T08:45:44;101602.06;;;23.37
29701;BMP280;57917;51.380;-0.176;2023-06-26T08:51:42;101609.63;;;23.59
29701;BMP280;57917;51.380;-0.176;2023-06-26T08:57:34;101606.03;;;23.82
29701;BMP280;57917;51.380;-0.176;2023-06-26T09:03:31;101609.59;;;24.33
29701;BMP280;57917;51.380;-0.176;2023-06-26T09:09:28;101613.59;;;25.08
29701;BMP280;57917;51.380;-0.176;2023-06-26T09:15:20;101605.50;;;24.73
29701;BMP280;57917;51.380;-0.176;2023-06-26T09:21:08;101616.59;;;25.22
29701;BMP280;57917;51.380;-0.176;2023-06-26T09:26:55;101614.38;;;26.40
29701;BMP280;57917;51.380;-0.176;2023-06-26T09:32:44;101614.75;;;25.26
29701;BMP280;57917;51.380;-0.176;2023-06-26T09:38:32;101619.78;;;25.46
29701;BMP280;57917;51.380;-0.176;2023-06-26T09:44:23;101622.09;;;25.67
29701;BMP280;57917;51.380;-0.176;2023-06-26T09:50:45;101612.16;;;25.14
29701;BMP280;57917;51.380;-0.176;2023-06-26T09:57:10;101612.16;;;24.76
29701;BMP280;57917;51.380;-0.176;2023-06-26T10:02:59;101625.09;;;24.17
29701;BMP280;57917;51.380;-0.176;2023-06-26T10:08:50;101625.72;;;23.83
29701;BMP280;57917;51.380;-0.176;2023-06-26T10:14:45;101632.13;;;24.06
29701;BMP280;57917;51.380;-0.176;2023-06-26T10:20:34;101641.50;;;24.74
29701;BMP280;57917;51.380;-0.176;2023-06-26T10:26:24;101639.16;;;23.79
29701;BMP280;57917;51.380;-0.176;2023-06-26T10:32:12;101652.41;;;23.84
29701;BMP280;57917;51.380;-0.176;2023-06-26T10:38:01;101660.34;;;24.20
29701;BMP280;57917;51.380;-0.176;2023-06-26T10:44:07;101655.56;;;24.79
29701;BMP280;57917;51.380;-0.176;2023-06-26T10:49:56;101657.94;;;24.65
29701;BMP280;57917;51.380;-0.176;2023-06-26T10:56:03;101653.25;;;24.62
29701;BMP280;57917;51.380;-0.176;2023-06-26T11:02:04;101664.25;;;25.23
29701;BMP280;57917;51.380;-0.176;2023-06-26T11:08:07;101683.19;;;25.61
29701;BMP280;57917;51.380;-0.176;2023-06-26T11:13:55;101669.06;;;25.71
29701;BMP280;57917;51.380;-0.176;2023-06-26T11:19:43;101663.97;;;25.88
29701;BMP280;57917;51.380;-0.176;2023-06-26T11:25:30;101664.28;;;26.32
29701;BMP280;57917;51.380;-0.176;2023-06-26T11:31:27;101666.06;;;25.76
29701;BMP280;57917;51.380;-0.176;2023-06-26T11:37:21;101676.03;;;24.96
29701;BMP280;57917;51.380;-0.176;2023-06-26T11:43:16;101679.78;;;25.64
29701;BMP280;57917;51.380;-0.176;2023-06-26T11:49:19;101680.22;;;25.66
29701;BMP280;57917;51.380;-0.176;2023-06-26T11:55:09;101696.25;;;25.74
29701;BMP280;57917;51.380;-0.176;2023-06-26T12:00:59;101700.78;;;25.89
29701;BMP280;57917;51.380;-0.176;2023-06-26T12:06:48;101685.25;;;25.10
29701;BMP280;57917;51.380;-0.176;2023-06-26T12:12:39;101686.06;;;24.61
29701;BMP280;57917;51.380;-0.176;2023-06-26T12:18:34;101697.56;;;25.23
29701;BMP280;57917;51.380;-0.176;2023-06-26T12:24:23;101705.09;;;25.33
29701;BMP280;57917;51.380;-0.176;2023-06-26T12:30:10;101693.94;;;25.16
29701;BMP280;57917;51.380;-0.176;2023-06-26T12:35:58;101682.41;;;24.07
29701;BMP280;57917;51.380;-0.176;2023-06-26T12:42:05;101691.34;;;23.40
29701;BMP280;57917;51.380;-0.176;2023-06-26T12:47:52;101687.63;;;24.46
29701;BMP280;57917;51.380;-0.176;2023-06-26T12:53:39;101689.69;;;24.99
29701;BMP280;57917;51.380;-0.176;2023-06-26T12:59:29;101688.63;;;25.61
29701;BMP280;57917;51.380;-0.176;2023-06-26T13:05:29;101690.78;;;25.93
29701;BMP280;57917;51.380;-0.176;2023-06-26T13:11:16;101676.44;;;25.13
29701;BMP280;57917;51.380;-0.176;2023-06-26T13:17:11;101668.47;;;24.86
29701;BMP280;57917;51.380;-0.176;2023-06-26T13:22:59;101689.56;;;25.11
29701;BMP280;57917;51.380;-0.176;2023-06-26T13:28:47;101677.00;;;24.69
29701;BMP280;57917;51.380;-0.176;2023-06-26T13:34:34;101686.56;;;24.82
29701;BMP280;57917;51.380;-0.176;2023-06-26T13:40:23;101683.28;;;24.73
29701;BMP280;57917;51.380;-0.176;2023-06-26T13:46:22;101693.38;;;25.10
29701;BMP280;57917;51.380;-0.176;2023-06-26T13:52:11;101685.63;;;25.09
29701;BMP280;57917;51.380;-0.176;2023-06-26T13:58:00;101675.72;;;24.82
29701;BMP280;57917;51.380;-0.176;2023-06-26T14:03:51;101702.06;;;24.50
29701;BMP280;57917;51.380;-0.176;2023-06-26T14:09:40;101689.03;;;24.25
29701;BMP280;57917;51.380;-0.176;2023-06-26T14:15:27;101700.31;;;24.58
29701;BMP280;57917;51.380;-0.176;2023-06-26T14:21:14;101703.16;;;24.80
29701;BMP280;57917;51.380;-0.176;2023-06-26T14:27:01;101704.88;;;25.04
29701;BMP280;57917;51.380;-0.176;2023-06-26T14:32:49;101697.34;;;25.13
29701;BMP280;57917;51.380;-0.176;2023-06-26T14:38:37;101691.69;;;25.02
29701;BMP280;57917;51.380;-0.176;2023-06-26T14:44:24;101693.72;;;25.24
29701;BMP280;57917;51.380;-0.176;2023-06-26T14:50:13;101703.53;;;25.13
29701;BMP280;57917;51.380;-0.176;2023-06-26T14:56:01;101691.84;;;24.94
29701;BMP280;57917;51.380;-0.176;2023-06-26T15:01:52;101681.63;;;24.68
29701;BMP280;57917;51.380;-0.176;2023-06-26T15:07:39;101686.41;;;24.75
29701;BMP280;57917;51.380;-0.176;2023-06-26T15:13:26;101681.97;;;24.36
29701;BMP280;57917;51.380;-0.176;2023-06-26T15:19:14;101677.81;;;24.38
29701;BMP280;57917;51.380;-0.176;2023-06-26T15:25:04;101682.88;;;23.97
29701;BMP280;57917;51.380;-0.176;2023-06-26T15:30:51;101685.91;;;24.23
29701;BMP280;57917;51.380;-0.176;2023-06-26T15:36:39;101683.06;;;24.31
29701;BMP280;57917;51.380;-0.176;2023-06-26T15:42:31;101698.84;;;24.45
29701;BMP280;57917;51.380;-0.176;2023-06-26T15:48:25;101681.44;;;23.72
29701;BMP280;57917;51.380;-0.176;2023-06-26T15:54:13;101700.59;;;23.94
29701;BMP280;57917;51.380;-0.176;2023-06-26T16:00:00;101677.09;;;24.10
29701;BMP280;57917;51.380;-0.176;2023-06-26T16:06:10;101687.31;;;24.17
29701;BMP280;57917;51.380;-0.176;2023-06-26T16:11:59;101688.91;;;24.49
29701;BMP280;57917;51.380;-0.176;2023-06-26T16:17:49;101663.66;;;24.14
29701;BMP280;57917;51.380;-0.176;2023-06-26T16:23:36;101675.44;;;24.37
29701;BMP280;57917;51.380;-0.176;2023-06-26T16:29:26;101677.41;;;23.93
29701;BMP280;57917;51.380;-0.176;2023-06-26T16:35:13;101669.06;;;24.14
29701;BMP280;57917;51.380;-0.176;2023-06-26T16:41:03;101678.69;;;24.27
29701;BMP280;57917;51.380;-0.176;2023-06-26T16:46:56;101670.34;;;24.04
29701;BMP280;57917;51.380;-0.176;2023-06-26T16:52:47;101661.53;;;24.07
29701;BMP280;57917;51.380;-0.176;2023-06-26T16:58:43;101661.97;;;24.09
29701;BMP280;57917;51.380;-0.176;2023-06-26T17:04:30;101661.72;;;24.14
29701;BMP280;57917;51.380;-0.176;2023-06-26T17:10:28;101652.38;;;24.43
29701;BMP280;57917;51.380;-0.176;2023-06-26T17:16:15;101648.69;;;24.51
29701;BMP280;57917;51.380;-0.176;2023-06-26T17:22:04;101647.00;;;24.27
29701;BMP280;57917;51.380;-0.176;2023-06-26T17:27:51;101649.41;;;24.48
29701;BMP280;57917;51.380;-0.176;2023-06-26T17:33:40;101644.78;;;24.02
29701;BMP280;57917;51.380;-0.176;2023-06-26T17:39:29;101646.41;;;23.91
29701;BMP280;57917;51.380;-0.176;2023-06-26T17:45:16;101650.16;;;23.71
29701;BMP280;57917;51.380;-0.176;2023-06-26T17:51:05;101664.41;;;23.44
29701;BMP280;57917;51.380;-0.176;2023-06-26T17:56:52;101663.19;;;23.41
29701;BMP280;57917;51.380;-0.176;2023-06-26T18:02:41;101664.72;;;23.15
29701;BMP280;57917;51.380;-0.176;2023-06-26T18:08:30;101677.22;;;23.07
29701;BMP280;57917;51.380;-0.176;2023-06-26T18:14:22;101690.19;;;23.02
29701;BMP280;57917;51.380;-0.176;2023-06-26T18:20:10;101691.31;;;22.89
29701;BMP280;57917;51.380;-0.176;2023-06-26T18:26:00;101706.53;;;22.69
29701;BMP280;57917;51.380;-0.176;2023-06-26T18:31:48;101709.44;;;22.20
29701;BMP280;57917;51.380;-0.176;2023-06-26T18:37:35;101715.69;;;22.11
29701;BMP280;57917;51.380;-0.176;2023-06-26T18:43:22;101721.69;;;22.29
29701;BMP280;57917;51.380;-0.176;2023-06-26T18:49:11;101731.19;;;22.35
29701;BMP280;57917;51.380;-0.176;2023-06-26T18:54:58;101731.97;;;22.36
29701;BMP280;57917;51.380;-0.176;2023-06-26T19:00:46;101731.88;;;22.11
29701;BMP280;57917;51.380;-0.176;2023-06-26T19:06:34;101731.38;;;21.97
29701;BMP280;57917;51.380;-0.176;2023-06-26T19:12:26;101742.22;;;22.09
29701;BMP280;57917;51.380;-0.176;2023-06-26T19:18:19;101752.88;;;22.06
29701;BMP280;57917;51.380;-0.176;2023-06-26T19:24:07;101760.88;;;22.02
29701;BMP280;57917;51.380;-0.176;2023-06-26T19:29:55;101768.59;;;22.04
29701;BMP280;57917;51.380;-0.176;2023-06-26T19:35:42;101760.06;;;22.02
29701;BMP280;57917;51.380;-0.176;2023-06-26T19:41:30;101775.31;;;21.98
29701;BMP280;57917;51.380;-0.176;2023-06-26T19:47:17;101766.50;;;22.09
29701;BMP280;57917;51.380;-0.176;2023-06-26T19:53:04;101763.78;;;22.09
29701;BMP280;57917;51.380;-0.176;2023-06-26T19:58:52;101779.69;;;21.90
29701;BMP280;57917;51.380;-0.176;2023-06-26T20:04:42;101772.66;;;21.69
29701;BMP280;57917;51.380;-0.176;2023-06-26T20:10:30;101775.13;;;21.53
29701;BMP280;57917;51.380;-0.176;2023-06-26T20:16:17;101784.81;;;21.25
29701;BMP280;57917;51.380;-0.176;2023-06-26T20:22:06;101801.91;;;21.29
29701;BMP280;57917;51.380;-0.176;2023-06-26T20:27:53;101800.16;;;21.25
29701;BMP280;57917;51.380;-0.176;2023-06-26T20:33:43;101799.13;;;21.09
29701;BMP280;57917;51.380;-0.176;2023-06-26T20:39:32;101814.28;;;21.30
29701;BMP280;57917;51.380;-0.176;2023-06-26T20:45:26;101817.53;;;21.07
29701;BMP280;57917;51.380;-0.176;2023-06-26T20:51:13;101815.75;;;21.11
29701;BMP280;57917;51.380;-0.176;2023-06-26T20:57:01;101822.50;;;20.79
29701;BMP280;57917;51.380;-0.176;2023-06-26T21:02:47;101807.94;;;20.80
29701;BMP280;57917;51.380;-0.176;2023-06-26T21:08:38;101820.75;;;20.75
29701;BMP280;57917;51.380;-0.176;2023-06-26T21:14:26;101831.97;;;20.68
29701;BMP280;57917;51.380;-0.176;2023-06-26T21:20:19;101841.38;;;20.45
29701;BMP280;57917;51.380;-0.176;2023-06-26T21:26:12;101842.59;;;20.56
29701;BMP280;57917;51.380;-0.176;2023-06-26T21:31:59;101843.88;;;20.33
29701;BMP280;57917;51.380;-0.176;2023-06-26T21:37:46;101851.34;;;20.53
29701;BMP280;57917;51.380;-0.176;2023-06-26T21:43:35;101840.91;;;20.35
29701;BMP280;57917;51.380;-0.176;2023-06-26T21:49:25;101843.59;;;20.35
29701;BMP280;57917;51.380;-0.176;2023-06-26T21:55:12;101852.63;;;20.39
29701;BMP280;57917;51.380;-0.176;2023-06-26T22:01:01;101845.44;;;20.09
29701;BMP280;57917;51.380;-0.176;2023-06-26T22:06:53;101841.31;;;20.11
29701;BMP280;57917;51.380;-0.176;2023-06-26T22:12:41;101854.88;;;19.89
29701;BMP280;57917;51.380;-0.176;2023-06-26T22:18:32;101831.75;;;19.71
29701;BMP280;57917;51.380;-0.176;2023-06-26T22:24:22;101849.38;;;19.55
29701;BMP280;57917;51.380;-0.176;2023-06-26T22:30:09;101841.28;;;19.47
29701;BMP280;57917;51.380;-0.176;2023-06-26T22:35:56;101846.78;;;19.33
29701;BMP280;57917;51.380;-0.176;2023-06-26T22:41:46;101838.78;;;19.20
29701;BMP280;57917;51.380;-0.176;2023-06-26T22:47:34;101852.34;;;19.15
29701;BMP280;57917;51.380;-0.176;2023-06-26T22:53:21;101846.28;;;19.09
29701;BMP280;57917;51.380;-0.176;2023-06-26T22:59:11;101847.41;;;19.08
29701;BMP280;57917;51.380;-0.176;2023-06-26T23:05:06;101857.88;;;18.96
29701;BMP280;57917;51.380;-0.176;2023-06-26T23:10:56;101864.63;;;18.71
29701;BMP280;57917;51.380;-0.176;2023-06-26T23:16:43;101859.19;;;18.63
29701;BMP280;57917;51.380;-0.176;2023-06-26T23:22:30;101859.41;;;18.53
29701;BMP280;57917;51.380;-0.176;2023-06-26T23:28:27;101870.41;;;18.43
29701;BMP280;57917;51.380;-0.176;2023-06-26T23:34:18;101872.19;;;18.34
29701;BMP280;57917;51.380;-0.176;2023-06-26T23:40:06;101876.28;;;18.18
29701;BMP280;57917;51.380;-0.176;2023-06-26T23:45:56;101874.22;;;18.15
29701;BMP280;57917;51.380;-0.176;2023-06-26T23:51:45;101882.28;;;18.15
29701;BMP280;57917;51.380;-0.176;2023-06-26T23:57:33;101894.94;;;18.36
